createdAt,value
2018-02-14T09:04:46.979Z,24.82
2018-02-14T09:05:19.940Z,24.83
2018-02-14T09:05:51.971Z,24.8
2018-02-14T09:06:24.028Z,24.74
2018-02-14T09:06:56.190Z,24.77
2018-02-14T09:07:28.514Z,24.83
2018-02-14T09:08:00.575Z,24.78
2018-02-14T09:08:32.591Z,24.9
2018-02-14T09:09:04.577Z,24.87
2018-02-14T09:09:36.628Z,24.86
2018-02-14T09:10:08.599Z,24.92
2018-02-14T09:10:40.621Z,24.92
2018-02-14T09:11:12.654Z,24.94
2018-02-14T09:11:44.665Z,24.92
2018-02-14T09:12:16.674Z,24.94
2018-02-14T09:12:48.735Z,24.94
2018-02-14T09:13:20.915Z,24.96
2018-02-14T09:13:53.733Z,24.97
2018-02-14T09:14:25.753Z,25.05
2018-02-14T09:14:57.763Z,25.08
2018-02-14T09:15:29.739Z,25.02
2018-02-14T09:16:02.651Z,25.07
2018-02-14T09:16:34.699Z,24.97
2018-02-14T09:17:06.827Z,25.02
2018-02-14T09:17:38.916Z,25.04
2018-02-14T09:18:10.935Z,25.01
2018-02-14T09:18:43.015Z,25.12
2018-02-14T09:19:15.060Z,25.07
2018-02-14T09:19:47.178Z,25.01
2018-02-14T09:20:19.227Z,25.11
2018-02-14T09:20:51.248Z,25.04
2018-02-14T09:21:23.256Z,25.17
2018-02-14T09:21:55.364Z,25.08
2018-02-14T09:22:27.464Z,25.09
2018-02-14T09:22:59.464Z,25.17
2018-02-14T09:23:31.441Z,25.17
2018-02-14T09:24:03.459Z,25.12
2018-02-14T09:24:35.445Z,25.17
2018-02-14T09:25:07.534Z,25.17
2018-02-14T09:25:39.612Z,25.22
2018-02-14T09:26:11.530Z,25.23
2018-02-14T09:26:43.549Z,25.24
2018-02-14T09:27:15.629Z,25.2
2018-02-14T09:27:47.632Z,25.22
2018-02-14T09:28:19.621Z,25.27
2018-02-14T09:28:52.242Z,25.2
2018-02-14T09:29:24.228Z,25.27
2018-02-14T09:29:56.261Z,25.26
2018-02-14T09:30:28.292Z,25.34
2018-02-14T09:31:01.152Z,25.29
2018-02-14T09:31:33.114Z,25.33
2018-02-14T09:32:05.116Z,25.32
2018-02-14T09:32:37.105Z,25.37
2018-02-14T09:33:09.086Z,25.37
2018-02-14T09:33:41.235Z,25.41
2018-02-14T09:34:13.246Z,25.37
2018-02-14T09:34:46.055Z,25.37
2018-02-14T09:35:18.052Z,25.33
2018-02-14T09:35:50.014Z,25.41
2018-02-14T09:36:22.034Z,25.49
2018-02-14T09:36:54.024Z,25.51
2018-02-14T09:37:26.131Z,25.45
2018-02-14T09:37:58.123Z,25.45
2018-02-14T09:38:30.113Z,25.45
2018-02-14T09:39:02.143Z,25.45
2018-02-14T09:39:34.136Z,25.52
2018-02-14T09:40:06.141Z,25.54
2018-02-14T09:40:38.138Z,25.49
2018-02-14T09:41:10.140Z,25.59
2018-02-14T09:41:42.157Z,25.59
2018-02-14T09:42:14.172Z,25.64
2018-02-14T09:42:46.198Z,25.52
2018-02-14T09:43:18.219Z,25.59
2018-02-14T09:43:50.218Z,25.6
2018-02-14T09:44:22.221Z,25.56
2018-02-14T09:44:54.265Z,25.54
2018-02-14T09:45:26.287Z,25.67
2018-02-14T09:45:58.278Z,25.63
2018-02-14T09:46:30.324Z,25.69
2018-02-14T09:47:02.362Z,25.67
2018-02-14T09:47:34.348Z,25.74
2018-02-14T09:48:06.324Z,25.78
2018-02-14T09:48:38.317Z,25.76
2018-02-14T09:49:10.375Z,25.71
2018-02-14T09:49:42.377Z,25.76
2018-02-14T09:50:14.365Z,25.75
2018-02-14T09:50:46.334Z,25.79
2018-02-14T09:51:18.362Z,25.82
2018-02-14T09:51:51.017Z,25.67
2018-02-14T09:52:23.008Z,25.74
2018-02-14T09:52:55.566Z,25.79
2018-02-14T09:53:27.578Z,25.81
2018-02-14T09:53:59.602Z,25.76
2018-02-14T09:54:31.823Z,25.79
2018-02-14T09:55:04.397Z,25.81
2018-02-14T09:55:36.363Z,25.75
2018-02-14T09:56:08.383Z,25.76
2018-02-14T09:56:40.466Z,25.81
2018-02-14T09:57:13.214Z,25.84
2018-02-14T09:57:45.252Z,25.86
2018-02-14T09:58:17.264Z,25.85
2018-02-14T09:58:49.290Z,25.88
2018-02-14T09:59:21.366Z,25.89
2018-02-14T09:59:53.311Z,25.91
2018-02-14T10:00:25.346Z,25.86
2018-02-14T10:00:57.358Z,25.91
2018-02-14T10:01:29.382Z,26
2018-02-14T10:02:01.442Z,25.85
2018-02-14T10:02:33.497Z,25.94
2018-02-14T10:03:05.540Z,25.97
2018-02-14T10:03:37.571Z,26.04
2018-02-14T10:04:09.610Z,26.03
2018-02-14T10:04:42.350Z,25.99
2018-02-14T10:05:14.456Z,26
2018-02-14T10:05:46.948Z,26
2018-02-14T10:06:19.425Z,26
2018-02-14T10:06:51.397Z,25.97
2018-02-14T10:07:23.412Z,26.09
2018-02-14T10:07:55.449Z,26.07
2018-02-14T10:08:27.437Z,26.11
2018-02-14T10:08:59.475Z,26.09
2018-02-14T10:09:31.534Z,26.06
2018-02-14T10:10:04.370Z,26.07
2018-02-14T10:10:36.557Z,26.15
2018-02-14T10:11:08.519Z,26.16
2018-02-14T10:11:40.545Z,26.12
2018-02-14T10:12:12.620Z,26.26
2018-02-14T10:12:45.586Z,26.16
2018-02-14T10:13:18.371Z,26.23
2018-02-14T10:13:51.173Z,26.24
2018-02-14T10:14:23.290Z,26.24
2018-02-14T10:14:55.355Z,26.19
2018-02-14T10:15:27.379Z,26.31
2018-02-14T10:15:59.352Z,26.37
2018-02-14T10:16:31.369Z,26.24
2018-02-14T10:17:03.497Z,26.31
2018-02-14T10:17:35.492Z,26.34
2018-02-14T10:18:07.524Z,26.23
2018-02-14T10:18:39.507Z,26.31
2018-02-14T10:19:11.481Z,26.34
2018-02-14T10:19:43.606Z,26.32
2018-02-14T10:20:16.422Z,26.35
2018-02-14T10:20:48.398Z,26.34
2018-02-14T10:21:20.405Z,26.35
2018-02-14T10:21:52.420Z,26.41
2018-02-14T10:22:24.423Z,26.26
2018-02-14T10:22:56.460Z,26.32
2018-02-14T10:23:28.479Z,26.34
2018-02-14T10:24:00.992Z,26.34
2018-02-14T10:24:33.003Z,26.37
2018-02-14T10:25:04.998Z,26.37
2018-02-14T10:25:36.986Z,26.34
2018-02-14T10:26:09.039Z,26.39
2018-02-14T10:26:40.998Z,26.41
2018-02-14T10:27:13.124Z,26.38
2018-02-14T10:27:45.104Z,26.38
2018-02-14T10:28:18.086Z,26.41
2018-02-14T10:28:50.161Z,26.47
2018-02-14T10:29:22.201Z,26.52
2018-02-14T10:29:54.201Z,26.49
2018-02-14T10:30:26.193Z,26.52
2018-02-14T10:30:58.209Z,26.49
2018-02-14T10:31:30.928Z,26.54
2018-02-14T10:32:02.924Z,26.5
2018-02-14T10:32:34.938Z,26.57
2018-02-14T10:33:06.964Z,26.57
2018-02-14T10:33:39.018Z,26.57
2018-02-14T10:34:11.017Z,26.56
2018-02-14T10:34:43.041Z,26.6
2018-02-14T10:35:15.588Z,26.6
2018-02-14T10:35:49.090Z,26.64
2018-02-14T10:36:21.101Z,26.61
2018-02-14T10:36:53.109Z,26.69
2018-02-14T10:37:25.123Z,26.71
2018-02-14T10:37:57.823Z,26.64
2018-02-14T10:38:29.811Z,26.69
2018-02-14T10:39:01.872Z,26.72
2018-02-14T10:39:33.924Z,26.79
2018-02-14T10:40:05.972Z,26.72
2018-02-14T10:40:37.981Z,26.78
2018-02-14T10:41:09.973Z,26.81
2018-02-14T10:41:42.254Z,26.86
2018-02-14T10:42:14.282Z,26.81
2018-02-14T10:42:46.283Z,26.93
2018-02-14T10:43:18.311Z,26.79
2018-02-14T10:43:50.378Z,26.82
2018-02-14T10:44:22.483Z,26.93
2018-02-14T10:44:54.473Z,26.96
2018-02-14T10:45:27.013Z,26.93
2018-02-14T10:45:59.051Z,26.93
2018-02-14T10:46:31.931Z,27
2018-02-14T10:47:04.025Z,26.99
2018-02-14T10:47:36.024Z,27.06
2018-02-14T10:48:08.705Z,27.06
2018-02-14T10:48:40.749Z,27
2018-02-14T10:49:12.787Z,27.09
2018-02-14T10:49:44.792Z,27.13
2018-02-14T10:50:16.832Z,27.12
2018-02-14T10:50:48.877Z,27.12
2018-02-14T10:51:20.915Z,27.19
2018-02-14T10:51:52.908Z,27.21
2018-02-14T10:52:25.543Z,27.21
2018-02-14T10:52:58.100Z,27.24
2018-02-14T10:53:30.193Z,27.18
2018-02-14T10:54:02.281Z,27.26
2018-02-14T10:54:34.319Z,27.28
2018-02-14T10:55:06.561Z,27.3
2018-02-14T10:55:38.582Z,27.31
2018-02-14T10:56:11.466Z,27.28
2018-02-14T10:56:43.788Z,27.33
2018-02-14T10:57:16.612Z,27.3
2018-02-14T10:57:48.687Z,27.27
2018-02-14T10:58:20.803Z,27.45
2018-02-14T10:58:52.842Z,27.46
2018-02-14T10:59:24.987Z,27.43
2018-02-14T10:59:57.030Z,27.36
2018-02-14T11:00:29.046Z,27.51
2018-02-14T11:01:01.091Z,27.51
2018-02-14T11:01:33.181Z,27.45
2018-02-14T11:02:05.823Z,27.48
2018-02-14T11:02:37.858Z,27.46
2018-02-14T11:03:10.298Z,27.48
2018-02-14T11:03:45.562Z,27.61
2018-02-14T11:04:17.960Z,27.62
2018-02-14T11:04:50.240Z,27.64
2018-02-14T11:05:23.743Z,27.57
2018-02-14T11:06:00.655Z,27.61
2018-02-14T11:06:35.253Z,27.66
2018-02-14T11:07:07.403Z,27.75
2018-02-14T11:07:39.475Z,27.71
2018-02-14T11:08:11.563Z,27.69
2018-02-14T11:08:43.641Z,27.66
2018-02-14T11:09:16.811Z,27.72
2018-02-14T11:09:51.712Z,27.76
2018-02-14T11:10:25.047Z,27.87
2018-02-14T11:10:57.081Z,27.83
2018-02-14T11:11:29.150Z,27.89
2018-02-14T11:12:01.151Z,27.9
2018-02-14T11:12:33.177Z,27.96
2018-02-14T11:13:05.193Z,27.9
2018-02-14T11:13:37.187Z,27.98
2018-02-14T11:14:09.239Z,27.99
2018-02-14T11:14:41.274Z,27.99
2018-02-14T11:15:13.277Z,28.06
2018-02-14T11:15:45.443Z,28.02
2018-02-14T11:16:17.624Z,28.03
2018-02-14T11:16:49.702Z,28.01
2018-02-14T11:17:21.722Z,28.05
2018-02-14T11:17:53.763Z,28.03
2018-02-14T11:18:25.762Z,28.08
2018-02-14T11:18:57.833Z,28.12
2018-02-14T11:19:29.834Z,28.21
2018-02-14T11:20:02.803Z,28.2
2018-02-14T11:20:34.853Z,28.24
2018-02-14T11:21:06.899Z,28.2
2018-02-14T11:21:38.934Z,28.24
2018-02-14T11:22:10.957Z,28.24
2018-02-14T11:22:43.259Z,28.3
2018-02-14T11:23:15.509Z,28.17
2018-02-14T11:23:47.543Z,28.35
2018-02-14T11:24:19.516Z,28.26
2018-02-14T11:24:51.588Z,28.28
2018-02-14T11:25:23.604Z,28.27
2018-02-14T11:25:55.592Z,28.33
2018-02-14T11:26:27.622Z,28.26
2018-02-14T11:27:00.341Z,28.27
2018-02-14T11:27:32.489Z,28.26
2018-02-14T11:28:05.134Z,28.36
2018-02-14T11:28:37.133Z,28.36
2018-02-14T11:29:09.165Z,28.36
2018-02-14T11:29:41.169Z,28.39
2018-02-14T11:30:13.194Z,28.42
2018-02-14T11:30:45.221Z,28.39
2018-02-14T11:31:18.130Z,28.48
2018-02-14T11:31:50.126Z,28.51
2018-02-14T11:32:22.124Z,28.53
2018-02-14T11:32:54.159Z,28.51
2018-02-14T11:33:26.148Z,28.55
2018-02-14T11:33:58.167Z,28.58
2018-02-14T11:34:30.176Z,28.64
2018-02-14T11:35:02.207Z,28.68
2018-02-14T11:35:35.140Z,28.55
2018-02-14T11:36:07.151Z,28.64
2018-02-14T11:36:39.942Z,28.73
2018-02-14T11:37:11.992Z,28.73
2018-02-14T11:37:44.040Z,28.72
2018-02-14T11:38:16.013Z,28.68
2018-02-14T11:38:48.051Z,28.75
2018-02-14T11:39:20.073Z,28.7
2018-02-14T11:39:52.126Z,28.75
2018-02-14T11:40:24.117Z,28.7
2018-02-14T11:40:56.799Z,28.8
2018-02-14T11:41:28.805Z,28.88
2018-02-14T11:42:00.908Z,28.8
2018-02-14T11:42:33.004Z,28.78
2018-02-14T11:43:05.068Z,28.85
2018-02-14T11:43:37.146Z,28.8
2018-02-14T11:44:09.307Z,28.85
2018-02-14T11:44:41.316Z,28.83
2018-02-14T11:45:13.373Z,28.86
2018-02-14T11:45:45.456Z,28.8
2018-02-14T11:46:17.480Z,28.94
2018-02-14T11:46:49.614Z,28.85
2018-02-14T11:47:22.262Z,28.82
2018-02-14T11:47:54.492Z,28.82
2018-02-14T11:48:26.665Z,28.86
2018-02-14T11:48:58.699Z,28.85
2018-02-14T11:49:30.741Z,28.9
2018-02-14T11:50:02.772Z,28.91
2018-02-14T11:50:34.800Z,29.01
2018-02-14T11:51:06.882Z,28.97
2018-02-14T11:51:38.895Z,28.92
2018-02-14T11:52:10.898Z,28.88
2018-02-14T11:52:42.875Z,28.97
2018-02-14T11:53:15.374Z,29.01
2018-02-14T11:53:48.073Z,29.06
2018-02-14T11:54:20.979Z,28.97
2018-02-14T11:54:52.985Z,29.03
2018-02-14T11:55:25.195Z,29.05
2018-02-14T11:55:57.340Z,29.05
2018-02-14T11:56:30.056Z,29.13
2018-02-14T11:57:02.136Z,29.1
2018-02-14T11:57:34.130Z,29.08
2018-02-14T11:58:06.151Z,29.13
2018-02-14T11:58:38.242Z,29.11
2018-02-14T11:59:10.245Z,29.23
2018-02-14T11:59:42.228Z,29.15
2018-02-14T12:00:14.241Z,29.26
2018-02-14T12:00:46.245Z,29.28
2018-02-14T12:01:18.449Z,29.35
2018-02-14T12:01:50.457Z,29.29
2018-02-14T12:02:22.434Z,29.35
2018-02-14T12:02:54.469Z,29.4
2018-02-14T12:03:26.500Z,29.39
2018-02-14T12:03:58.514Z,29.39
2018-02-14T12:04:30.507Z,29.5
2018-02-14T12:05:02.568Z,29.47
2018-02-14T12:05:34.584Z,29.48
2018-02-14T12:06:06.632Z,29.51
2018-02-14T12:06:38.688Z,29.54
2018-02-14T12:07:10.675Z,29.6
2018-02-14T12:07:42.661Z,29.63
2018-02-14T12:08:14.789Z,29.67
2018-02-14T12:08:46.785Z,29.72
2018-02-14T12:09:18.818Z,29.72
2018-02-14T12:09:50.884Z,29.84
2018-02-14T12:10:22.898Z,29.84
2018-02-14T12:10:54.944Z,29.84
2018-02-14T12:11:27.151Z,29.81
2018-02-14T12:11:59.187Z,29.94
2018-02-14T12:12:31.208Z,29.97
2018-02-14T12:13:03.298Z,30
2018-02-14T12:13:35.291Z,30.02
2018-02-14T12:14:07.327Z,30.06
2018-02-14T12:14:39.293Z,30.1
2018-02-14T12:15:11.299Z,30.07
2018-02-14T12:15:43.324Z,30.22
2018-02-14T12:16:15.437Z,30.26
2018-02-14T12:16:47.462Z,30.19
2018-02-14T12:17:19.506Z,30.19
2018-02-14T12:17:51.569Z,30.34
2018-02-14T12:18:23.602Z,30.37
2018-02-14T12:18:55.558Z,30.47
2018-02-14T12:19:27.760Z,30.54
2018-02-14T12:19:59.869Z,30.48
2018-02-14T12:20:31.984Z,30.49
2018-02-14T12:21:03.961Z,30.56
2018-02-14T12:21:35.967Z,30.67
2018-02-14T12:22:07.991Z,30.63
2018-02-14T12:22:40.020Z,30.63
2018-02-14T12:23:12.001Z,30.73
2018-02-14T12:23:44.138Z,30.75
2018-02-14T12:24:16.901Z,30.79
2018-02-14T12:24:48.922Z,30.86
2018-02-14T12:25:20.955Z,30.84
2018-02-14T12:25:53.063Z,30.88
2018-02-14T12:26:25.084Z,30.84
2018-02-14T12:26:57.269Z,30.88
2018-02-14T12:27:29.335Z,30.89
2018-02-14T12:28:01.325Z,31
2018-02-14T12:28:33.466Z,31.06
2018-02-14T12:29:05.500Z,31.07
2018-02-14T12:29:37.572Z,31.12
2018-02-14T12:30:09.579Z,31.19
2018-02-14T12:30:41.592Z,31.22
2018-02-14T12:31:13.702Z,31.28
2018-02-14T12:31:45.745Z,31.26
2018-02-14T12:32:17.755Z,31.25
2018-02-14T12:32:50.574Z,31.36
2018-02-14T12:33:22.613Z,31.33
2018-02-14T12:33:54.649Z,31.33
2018-02-14T12:34:26.655Z,31.41
2018-02-14T12:34:58.693Z,31.49
2018-02-14T12:35:30.729Z,31.5
2018-02-14T12:36:02.771Z,31.52
2018-02-14T12:36:34.782Z,31.59
2018-02-14T12:37:06.800Z,31.52
2018-02-14T12:37:38.845Z,31.67
2018-02-14T12:38:10.863Z,31.67
2018-02-14T12:38:43.509Z,31.72
2018-02-14T12:39:15.540Z,31.72
2018-02-14T12:39:47.563Z,31.87
2018-02-14T12:40:19.557Z,31.86
2018-02-14T12:40:51.528Z,31.88
2018-02-14T12:41:23.509Z,31.91
2018-02-14T12:41:55.539Z,32.01
2018-02-14T12:42:27.523Z,31.97
2018-02-14T12:43:00.093Z,32
2018-02-14T12:43:32.693Z,32.1
2018-02-14T12:44:04.702Z,32.16
2018-02-14T12:44:36.717Z,32.17
2018-02-14T12:45:08.746Z,32.17
2018-02-14T12:45:41.674Z,32.25
2018-02-14T12:46:13.653Z,32.3
2018-02-14T12:46:45.682Z,32.24
2018-02-14T12:47:17.711Z,32.34
2018-02-14T12:47:49.719Z,32.37
2018-02-14T12:48:21.779Z,32.27
2018-02-14T12:48:53.852Z,32.42
2018-02-14T12:49:25.860Z,32.52
2018-02-14T12:49:57.859Z,32.52
2018-02-14T12:50:29.858Z,32.53
2018-02-14T12:51:01.919Z,32.56
2018-02-14T12:51:33.935Z,32.56
2018-02-14T12:52:06.058Z,32.68
2018-02-14T12:52:38.214Z,32.69
2018-02-14T12:53:10.356Z,32.62
2018-02-14T12:53:42.360Z,32.74
2018-02-14T12:54:14.381Z,32.75
2018-02-14T12:54:46.407Z,32.75
2018-02-14T12:55:18.449Z,32.75
2018-02-14T12:55:50.461Z,32.81
2018-02-14T12:56:22.567Z,32.84
2018-02-14T12:56:54.546Z,32.9
2018-02-14T12:57:26.564Z,32.89
2018-02-14T12:57:58.562Z,33.01
2018-02-14T12:58:30.595Z,33.03
2018-02-14T12:59:02.659Z,32.94
2018-02-14T12:59:34.690Z,33.06
2018-02-14T13:00:06.718Z,32.99
2018-02-14T13:00:38.746Z,33.08
2018-02-14T13:01:10.833Z,33.08
2018-02-14T13:01:42.860Z,33.13
2018-02-14T13:02:14.913Z,33.21
2018-02-14T13:02:46.955Z,33.2
2018-02-14T13:03:18.981Z,33.17
2018-02-14T13:03:50.990Z,33.26
2018-02-14T13:04:23.710Z,33.32
2018-02-14T13:04:57.010Z,33.24
2018-02-14T13:05:29.014Z,33.28
2018-02-14T13:06:01.730Z,33.28
2018-02-14T13:06:33.767Z,33.31
2018-02-14T13:07:05.854Z,33.39
2018-02-14T13:07:37.849Z,33.36
2018-02-14T13:08:09.831Z,33.28
2018-02-14T13:08:41.876Z,33.32
2018-02-14T13:09:13.937Z,33.32
2018-02-14T13:09:45.958Z,33.34
2018-02-14T13:10:17.949Z,33.39
2018-02-14T13:10:49.942Z,33.41
2018-02-14T13:11:21.980Z,33.4
2018-02-14T13:11:53.994Z,33.44
2018-02-14T13:12:26.031Z,33.46
2018-02-14T13:12:58.071Z,33.47
2018-02-14T13:13:30.055Z,33.44
2018-02-14T13:14:02.079Z,33.58
2018-02-14T13:14:35.007Z,33.48
2018-02-14T13:15:06.992Z,33.61
2018-02-14T13:15:38.945Z,33.56
2018-02-14T13:16:10.954Z,33.61
2018-02-14T13:16:42.979Z,33.61
2018-02-14T13:17:15.007Z,33.68
2018-02-14T13:17:47.006Z,33.74
2018-02-14T13:18:19.054Z,33.71
2018-02-14T13:18:51.047Z,33.73
2018-02-14T13:19:23.155Z,33.81
2018-02-14T13:19:55.264Z,33.73
2018-02-14T13:20:27.278Z,33.83
2018-02-14T13:21:00.219Z,33.81
2018-02-14T13:21:32.464Z,33.85
2018-02-14T13:22:04.505Z,33.89
2018-02-14T13:22:37.247Z,33.92
2018-02-14T13:23:09.287Z,33.95
2018-02-14T13:23:42.038Z,33.92
2018-02-14T13:24:14.165Z,33.99
2018-02-14T13:24:47.042Z,34.03
2018-02-14T13:25:19.073Z,34.05
2018-02-14T13:25:51.129Z,33.99
2018-02-14T13:26:23.152Z,34.1
2018-02-14T13:26:55.179Z,34.1
2018-02-14T13:27:27.352Z,34.12
2018-02-14T13:27:59.324Z,34.12
2018-02-14T13:28:31.320Z,34.17
2018-02-14T13:29:03.404Z,34.1
2018-02-14T13:29:35.457Z,34.17
2018-02-14T13:30:07.453Z,34.19
2018-02-14T13:30:39.434Z,34.21
2018-02-14T13:31:11.430Z,34.18
2018-02-14T13:31:43.406Z,34.17
2018-02-14T13:32:16.094Z,34.19
2018-02-14T13:32:48.090Z,34.33
2018-02-14T13:33:20.143Z,34.32
2018-02-14T13:33:52.184Z,34.27
2018-02-14T13:34:24.970Z,34.3
2018-02-14T13:34:57.893Z,34.29
2018-02-14T13:35:30.429Z,34.34
2018-02-14T13:36:02.521Z,34.32
2018-02-14T13:36:34.674Z,34.36
2018-02-14T13:37:06.799Z,34.37
2018-02-14T13:37:38.817Z,34.49
2018-02-14T13:38:10.827Z,34.45
2018-02-14T13:38:42.861Z,34.45
2018-02-14T13:39:14.876Z,34.45
2018-02-14T13:39:46.935Z,34.48
2018-02-14T13:40:18.995Z,34.45
2018-02-14T13:40:51.158Z,34.52
2018-02-14T13:41:23.196Z,34.54
2018-02-14T13:41:55.246Z,34.55
2018-02-14T13:42:27.215Z,34.51
2018-02-14T13:42:59.293Z,34.59
2018-02-14T13:43:31.309Z,34.55
2018-02-14T13:44:03.337Z,34.55
2018-02-14T13:44:35.376Z,34.51
2018-02-14T13:45:08.746Z,34.54
2018-02-14T13:45:40.718Z,34.61
2018-02-14T13:46:12.781Z,34.58
2018-02-14T13:46:46.275Z,34.59
2018-02-14T13:47:18.282Z,34.52
2018-02-14T13:47:51.184Z,34.64
2018-02-14T13:48:23.209Z,34.61
2018-02-14T13:48:55.952Z,34.64
2018-02-14T13:49:28.206Z,34.64
2018-02-14T13:50:00.259Z,34.66
2018-02-14T13:50:32.330Z,34.59
2018-02-14T13:51:04.384Z,34.71
2018-02-14T13:51:36.953Z,34.67
2018-02-14T13:52:08.960Z,34.67
2018-02-14T13:52:40.958Z,34.71
2018-02-14T13:53:12.983Z,34.59
2018-02-14T13:53:45.015Z,34.74
2018-02-14T13:54:16.998Z,34.59
2018-02-14T13:54:49.028Z,34.69
2018-02-14T13:55:21.065Z,34.71
2018-02-14T13:55:53.111Z,34.64
2018-02-14T13:56:26.009Z,34.63
2018-02-14T13:56:58.547Z,34.61
2018-02-14T13:57:30.716Z,34.66
2018-02-14T13:58:04.252Z,34.63
2018-02-14T13:58:36.468Z,34.61
2018-02-14T13:59:09.817Z,34.64
2018-02-14T13:59:42.777Z,34.59
2018-02-14T14:00:14.856Z,34.58
2018-02-14T14:00:46.852Z,34.59
2018-02-14T14:01:18.887Z,34.54
2018-02-14T14:01:50.961Z,34.54
2018-02-14T14:02:22.980Z,34.54
2018-02-14T14:02:55.029Z,34.58
2018-02-14T14:03:27.128Z,34.52
2018-02-14T14:03:59.411Z,34.48
2018-02-14T14:04:31.458Z,34.49
2018-02-14T14:05:03.572Z,34.51
2018-02-14T14:05:35.589Z,34.46
2018-02-14T14:06:07.640Z,34.52
2018-02-14T14:06:39.683Z,34.48
2018-02-14T14:07:13.776Z,34.39
2018-02-14T14:07:46.200Z,34.43
2018-02-14T14:08:18.850Z,34.36
2018-02-14T14:08:51.563Z,34.39
2018-02-14T14:09:23.529Z,34.37
2018-02-14T14:09:55.585Z,34.37
2018-02-14T14:10:27.641Z,34.39
2018-02-14T14:10:59.717Z,34.34
2018-02-14T14:11:33.217Z,34.32
2018-02-14T14:12:05.216Z,34.34
2018-02-14T14:12:37.333Z,34.32
2018-02-14T14:13:09.435Z,34.22
2018-02-14T14:13:41.489Z,34.27
2018-02-14T14:14:14.225Z,34.29
2018-02-14T14:14:46.369Z,34.19
2018-02-14T14:15:19.274Z,34.24
2018-02-14T14:15:51.304Z,34.19
2018-02-14T14:16:23.296Z,34.19
2018-02-14T14:16:56.139Z,34.24
2018-02-14T14:17:29.537Z,34.21
2018-02-14T14:18:03.196Z,34.11
2018-02-14T14:18:35.222Z,34.18
2018-02-14T14:19:07.213Z,34.1
2018-02-14T14:19:39.335Z,34.08
2018-02-14T14:20:12.182Z,34.14
2018-02-14T14:20:44.319Z,34.1
2018-02-14T14:21:16.335Z,34.15
2018-02-14T14:21:48.343Z,34.1
2018-02-14T14:22:20.404Z,34.1
2018-02-14T14:22:52.450Z,34.1
2018-02-14T14:23:24.532Z,34.05
2018-02-14T14:23:56.563Z,33.93
2018-02-14T14:24:28.624Z,33.96
2018-02-14T14:25:00.626Z,34.03
2018-02-14T14:25:32.673Z,33.93
2018-02-14T14:26:04.704Z,33.92
2018-02-14T14:26:36.706Z,33.81
2018-02-14T14:27:08.925Z,33.9
2018-02-14T14:27:41.455Z,33.84
2018-02-14T14:28:13.503Z,33.87
2018-02-14T14:28:45.687Z,33.83
2018-02-14T14:29:17.867Z,33.77
2018-02-14T14:29:49.925Z,33.77
2018-02-14T14:30:22.753Z,33.81
2018-02-14T14:30:55.554Z,33.75
2018-02-14T14:31:27.611Z,33.75
2018-02-14T14:31:59.672Z,33.65
2018-02-14T14:32:31.702Z,33.68
2018-02-14T14:33:03.764Z,33.59
2018-02-14T14:33:35.788Z,33.61
2018-02-14T14:34:07.825Z,33.61
2018-02-14T14:34:40.441Z,33.55
2018-02-14T14:35:12.501Z,33.55
2018-02-14T14:35:45.825Z,33.53
2018-02-14T14:36:18.456Z,33.5
2018-02-14T14:36:50.502Z,33.44
2018-02-14T14:37:22.544Z,33.36
2018-02-14T14:37:54.548Z,33.44
2018-02-14T14:38:27.227Z,33.44
2018-02-14T14:38:59.325Z,33.32
2018-02-14T14:39:31.412Z,33.34
2018-02-14T14:40:04.450Z,33.26
2018-02-14T14:40:36.496Z,33.21
2018-02-14T14:41:08.562Z,33.16
2018-02-14T14:41:41.153Z,33.11
2018-02-14T14:42:15.385Z,33.03
2018-02-14T14:42:47.496Z,33.01
2018-02-14T14:43:19.550Z,32.99
2018-02-14T14:43:51.681Z,33.02
2018-02-14T14:44:23.691Z,32.9
2018-02-14T14:44:55.690Z,32.76
2018-02-14T14:45:28.544Z,32.76
2018-02-14T14:46:00.548Z,32.75
2018-02-14T14:46:32.577Z,32.72
2018-02-14T14:47:04.582Z,32.61
2018-02-14T14:47:37.302Z,32.57
2018-02-14T14:48:11.701Z,32.54
2018-02-14T14:48:44.318Z,32.49
2018-02-14T14:49:17.670Z,32.31
2018-02-14T14:49:49.752Z,32.31
2018-02-14T14:50:21.980Z,32.24
2018-02-14T14:50:55.663Z,32.15
2018-02-14T14:51:28.240Z,32.08
2018-02-14T14:52:00.768Z,31.98
2018-02-14T14:52:32.770Z,32
2018-02-14T14:53:04.857Z,31.94
2018-02-14T14:53:37.008Z,31.8
2018-02-14T14:54:09.024Z,31.68
2018-02-14T14:54:41.066Z,31.53
2018-02-14T14:55:13.145Z,31.55
2018-02-14T14:55:45.204Z,31.47
2018-02-14T14:56:17.818Z,31.38
2018-02-14T14:56:49.954Z,31.25
2018-02-14T14:57:22.626Z,31.26
2018-02-14T14:57:55.508Z,31.1
2018-02-14T14:58:27.508Z,31.01
2018-02-14T14:58:59.665Z,30.91
2018-02-14T14:59:31.655Z,30.85
2018-02-14T15:00:03.665Z,30.82
2018-02-14T15:00:36.352Z,30.73
2018-02-14T15:01:08.312Z,30.66
2018-02-14T15:01:40.358Z,30.54
2018-02-14T15:02:12.369Z,30.42
2018-02-14T15:02:44.376Z,30.37
2018-02-14T15:03:16.393Z,30.19
2018-02-14T15:03:48.381Z,30.24
2018-02-14T15:04:20.407Z,30.14
2018-02-14T15:04:52.505Z,30.09
2018-02-14T15:05:24.551Z,29.94
2018-02-14T15:05:57.313Z,29.91
2018-02-14T15:06:29.412Z,29.75
2018-02-14T15:07:01.439Z,29.7
2018-02-14T15:07:34.504Z,29.66
2018-02-14T15:08:07.419Z,29.61
2018-02-14T15:08:39.573Z,29.45
2018-02-14T15:09:11.592Z,29.4
2018-02-14T15:09:43.609Z,29.39
2018-02-14T15:10:15.636Z,29.29
2018-02-14T15:10:47.618Z,29.18
2018-02-14T15:11:19.626Z,29.08
2018-02-14T15:11:51.633Z,29.02
2018-02-14T15:12:23.656Z,28.91
2018-02-14T15:12:55.682Z,28.9
2018-02-14T15:13:27.682Z,28.9
2018-02-14T15:13:59.703Z,28.86
2018-02-14T15:14:31.791Z,28.76
2018-02-14T15:15:03.796Z,28.64
2018-02-14T15:15:36.747Z,28.55
2018-02-14T15:16:08.799Z,28.53
2018-02-14T15:16:40.817Z,28.42
2018-02-14T15:17:12.778Z,28.36
2018-02-14T15:17:44.911Z,28.24
2018-02-14T15:18:16.930Z,28.28
2018-02-14T15:18:48.982Z,28.17
2018-02-14T15:19:21.002Z,28.08
2018-02-14T15:19:53.823Z,28.01
2018-02-14T15:20:25.857Z,27.99
2018-02-14T15:20:57.898Z,27.96
2018-02-14T15:21:29.928Z,27.89
2018-02-14T15:22:01.940Z,27.81
2018-02-14T15:22:34.020Z,27.69
2018-02-14T15:23:06.053Z,27.66
2018-02-14T15:23:38.042Z,27.64
2018-02-14T15:24:10.062Z,27.59
2018-02-14T15:24:42.204Z,27.53
2018-02-14T15:25:14.213Z,27.49
2018-02-14T15:25:46.203Z,27.45
2018-02-14T15:26:18.202Z,27.28
2018-02-14T15:26:50.245Z,27.33
2018-02-14T15:27:22.213Z,27.23
2018-02-14T15:27:54.322Z,27.19
2018-02-14T15:28:26.322Z,27.12
2018-02-14T15:28:58.365Z,27.05
2018-02-14T15:29:30.397Z,26.99
2018-02-14T15:30:02.415Z,26.94
2018-02-14T15:30:34.503Z,26.93
2018-02-14T15:31:06.500Z,26.96
2018-02-14T15:31:39.429Z,26.79
2018-02-14T15:32:11.459Z,26.75
2018-02-14T15:32:43.464Z,26.67
2018-02-14T15:33:15.476Z,26.63
2018-02-14T15:33:47.450Z,26.57
2018-02-14T15:34:19.519Z,26.64
2018-02-14T15:34:51.492Z,26.44
2018-02-14T15:35:23.550Z,26.44
2018-02-14T15:35:55.534Z,26.38
2018-02-14T15:36:28.341Z,26.41
2018-02-14T15:37:00.358Z,26.34
2018-02-14T15:37:32.935Z,26.27
2018-02-14T15:38:04.905Z,26.2
2018-02-14T15:38:36.948Z,26.23
2018-02-14T15:39:08.963Z,26.16
2018-02-14T15:39:41.009Z,26.15
2018-02-14T15:40:13.084Z,26.12
2018-02-14T15:40:45.247Z,25.96
2018-02-14T15:41:17.259Z,25.97
2018-02-14T15:41:49.332Z,25.93
2018-02-14T15:42:21.359Z,25.88
2018-02-14T15:42:53.382Z,25.85
2018-02-14T15:43:25.365Z,25.82
2018-02-14T15:43:57.345Z,25.76
2018-02-14T15:44:29.386Z,25.75
2018-02-14T15:45:01.404Z,25.74
2018-02-14T15:45:33.465Z,25.66
2018-02-14T15:46:05.488Z,25.67
2018-02-14T15:46:37.489Z,25.6
2018-02-14T15:47:09.515Z,25.57
2018-02-14T15:47:42.557Z,25.52
2018-02-14T15:48:15.454Z,25.56
2018-02-14T15:48:47.504Z,25.42
2018-02-14T15:49:21.263Z,25.41
2018-02-14T15:49:53.261Z,25.37
2018-02-14T15:50:25.298Z,25.41
2018-02-14T15:50:57.315Z,25.37
2018-02-14T15:51:29.330Z,25.27
2018-02-14T15:52:01.302Z,25.22
2018-02-14T15:52:33.831Z,25.2
2018-02-14T15:53:05.863Z,25.15
2018-02-14T15:53:37.897Z,25.12
2018-02-14T15:54:09.946Z,25.07
2018-02-14T15:54:41.939Z,25.15
2018-02-14T15:55:14.003Z,25.02
2018-02-14T15:55:45.995Z,25.04
2018-02-14T15:56:17.992Z,25.04
2018-02-14T15:56:50.054Z,24.97
2018-02-14T15:57:22.089Z,24.92
2018-02-14T15:57:54.762Z,24.9
2018-02-14T15:58:26.776Z,24.92
2018-02-14T15:58:58.848Z,24.85
2018-02-14T15:59:30.905Z,24.71
2018-02-14T16:00:02.911Z,24.74
2018-02-14T16:00:35.640Z,24.8